Latest Weather Observations for Rundle Island

IDQ60801

Issued at 11:33 pm EST Monday 25 July 2016 (issued every 30 minutes, with the page automatically refreshed every 10 minutes)

About weather observations | Map of weather stations | Latest weather observations for QLD | Other Formats
Station Details ID: 039322 Name: RUNDLE ISLAND Lat: -23.53 Lon: 151.28 Height: 19.8 m
Data from the previous 72 hours. | See also: Recent months at Rundle Island
Date/Time
EST
Temp
°C
App
Temp
°C
Dew
Point
°C
Rel
Hum
%
Delta-T
°C
Wind Press
QNH
hPa
Press
MSL
hPa
Rain since
9am
mm
Dir  Spd
km/h
Gust
km/h
Spd
kts
Gust
kts
25/11:30pm 18.9 - - - - SW 7 9 4 5 1018.1 1018.0 -
25/11:00pm 18.9 - - - - SW 9 11 5 6 1018.1 1018.0 -
25/10:30pm 18.9 - - - - SW 6 9 3 5 1018.2 1018.1 -
25/10:00pm 20.1 - - - - CALM 0 0 0 0 1018.1 1018.0 -
25/09:30pm 19.9 - - - - E 4 4 2 2 1017.9 1017.8 -
25/09:00pm 20.1 - - - - NE 4 6 2 3 1017.9 1017.8 -
25/08:30pm 20.2 - - - - NNE 2 4 1 2 1017.8 1017.7 -
25/08:00pm 20.2 - - - - NE 6 7 3 4 1017.7 1017.6 -
25/07:30pm 20.1 - - - - ENE 11 13 6 7 1017.4 1017.3 -
25/07:00pm 20.2 - - - - ENE 13 15 7 8 1017.1 1017.0 -
25/06:30pm 20.1 - - - - NE 11 13 6 7 1016.6 1016.5 -
25/06:00pm 20.2 - - - - NE 9 11 5 6 1016.2 1016.1 -
25/05:30pm 20.5 - - - - NNE 7 7 4 4 1016.0 1015.9 -
25/05:00pm 21.0 - - - - NNE 6 9 3 5 1015.9 1015.8 -
25/04:30pm 22.0 - - - - NE 6 7 3 4 1015.8 1015.7 -
25/04:00pm 21.8 - - - - NNE 6 7 3 4 1015.7 1015.6 -
25/03:30pm 21.4 - - - - NE 7 13 4 7 1015.5 1015.4 -
25/03:00pm 20.9 - - - - E 13 15 7 8 1015.4 1015.3 -
25/02:30pm 21.0 - - - - E 9 11 5 6 1015.6 1015.5 -
25/02:00pm 20.9 - - - - E 9 11 5 6 1015.8 1015.7 -
25/01:30pm 21.1 - - - - ESE 11 11 6 6 1016.1 1016.0 -
25/01:00pm 20.9 - - - - ESE 11 13 6 7 1016.4 1016.3 -
25/12:30pm 20.3 - - - - SE 13 15 7 8 1016.9 1016.8 -
25/12:00pm 20.4 - - - - SSE 13 15 7 8 1017.4 1017.3 -
25/11:30am 20.5 - - - - SSE 11 13 6 7 1017.8 1017.7 -
25/11:00am 20.4 - - - - SSE 15 17 8 9 1018.1 1018.0 -
25/10:30am 20.2 - - - - S 20 22 11 12 1018.4 1018.3 -
25/10:00am 20.1 - - - - S 22 24 12 13 1018.4 1018.3 -
25/09:30am 19.5 - - - - S 26 30 14 16 1018.5 1018.4 -
25/09:00am 19.4 - - - - S 19 22 10 12 1018.3 1018.2 -
25/08:30am 19.2 - - - - SSW 17 19 9 10 1018.3 1018.2 -
25/08:00am 19.3 - - - - SSW 11 13 6 7 1017.9 1017.8 -
25/07:30am 19.1 - - - - SW 9 11 5 6 1017.6 1017.5 -
25/07:00am 19.1 - - - - WSW 13 17 7 9 1017.1 1017.0 -
25/06:30am 18.7 - - - - W 13 15 7 8 1016.7 1016.6 -
25/06:00am 18.6 - - - - NW 6 9 3 5 1016.0 1015.9 -
25/05:30am 18.5 - - - - W 7 11 4 6 1015.7 1015.6 -
25/05:00am 18.4 - - - - SW 6 9 3 5 1015.4 1015.3 -
25/04:30am 18.4 - - - - WSW 9 13 5 7 1015.3 1015.2 -
25/04:00am 19.1 - - - - W 7 9 4 5 1015.0 1014.9 -
25/03:30am 19.8 - - - - WNW 7 9 4 5 1014.9 1014.8 -
25/03:00am 20.4 - - - - NW 7 9 4 5 1014.8 1014.7 -
25/02:30am 20.4 - - - - NNW 9 9 5 5 1014.8 1014.7 -
25/02:00am 20.4 - - - - NW 9 11 5 6 1015.0 1014.9 -
25/01:30am 20.5 - - - - NNW 9 11 5 6 1015.1 1015.0 -
25/01:00am 20.5 - - - - N 9 11 5 6 1015.2 1015.1 -
25/12:30am 20.3 - - - - NNE 9 9 5 5 1015.3 1015.2 -
25/12:00am 20.2 - - - - NNE 6 6 3 3 1015.5 1015.4 -
 
Date/Time
EST
Temp
°C
App
Temp
°C
Dew
Point
°C
Rel
Hum
%
Delta-T
°C
Wind Press
QNH
hPa
Press
MSL
hPa
Rain since
9am
mm
Dir  Spd
km/h
Gust
km/h
Spd
kts
Gust
kts
24/11:30pm 19.9 - - - - ESE 2 6 1 3 1015.5 1015.4 -
24/11:00pm 19.8 - - - - CALM 0 0 0 0 1015.7 1015.6 -
24/10:30pm 19.7 - - - - SW 4 6 2 3 1016.0 1015.9 -
24/10:00pm 19.9 - - - - SW 7 7 4 4 1016.0 1015.9 -
24/09:30pm 19.9 - - - - CALM 0 7 0 4 1015.9 1015.8 -
24/09:00pm 19.9 - - - - CALM 0 0 0 0 1015.7 1015.6 -
24/08:30pm 20.2 - - - - CALM 0 0 0 0 1015.4 1015.3 -
24/08:00pm 20.5 - - - - CALM 0 0 0 0 1015.2 1015.1 -
24/07:30pm 20.3 - - - - CALM 0 0 0 0 1015.0 1014.9 -
24/07:00pm 20.4 - - - - CALM 0 0 0 0 1014.8 1014.7 -
24/06:30pm 20.4 - - - - ENE 4 6 2 3 1014.4 1014.3 -
24/06:00pm 20.4 - - - - ENE 7 9 4 5 1014.1 1014.0 -
24/05:30pm 20.5 - - - - E 9 9 5 5 1013.9 1013.8 -
24/05:00pm 20.8 - - - - E 7 9 4 5 1013.7 1013.6 -
24/04:30pm 21.1 - - - - E 9 11 5 6 1013.6 1013.5 -
24/04:00pm 21.0 - - - - E 9 11 5 6 1013.4 1013.3 -
24/03:30pm 20.9 - - - - E 9 11 5 6 1013.5 1013.4 -
24/03:00pm 20.7 - - - - E 13 15 7 8 1013.3 1013.2 -
24/02:30pm 20.7 - - - - ESE 11 13 6 7 1013.7 1013.6 -
24/02:00pm 20.7 - - - - SE 11 13 6 7 1014.0 1013.9 -
24/01:30pm 20.3 - - - - SE 13 15 7 8 1014.5 1014.4 -
24/01:00pm 20.8 - - - - SE 15 17 8 9 1014.8 1014.7 -
24/12:30pm 20.9 - - - - ESE 15 17 8 9 1015.2 1015.1 -
24/12:00pm 21.0 - - - - ESE 17 19 9 10 1015.7 1015.6 -
24/11:30am 21.3 - - - - ESE 17 20 9 11 1016.3 1016.2 -
24/11:00am 21.4 - - - - ESE 19 20 10 11 1016.6 1016.5 -
24/10:30am 21.4 - - - - ESE 15 22 8 12 1016.8 1016.7 -
24/10:00am 22.6 - - - - CALM 0 0 0 0 1017.0 1016.9 -
24/09:30am 22.2 - - - - ENE 6 6 3 3 1016.8 1016.7 -
24/09:00am 21.8 - - - - E 4 6 2 3 1016.6 1016.5 -
24/08:30am 20.6 - - - - SSE 2 4 1 2 1016.3 1016.2 -
24/08:00am 19.8 - - - - SW 9 11 5 6 1016.0 1015.9 -
24/07:30am 19.8 - - - - SW 6 9 3 5 1015.7 1015.6 -
24/07:00am 19.9 - - - - CALM 0 0 0 0 1015.4 1015.3 -
24/06:30am 19.5 - - - - WNW 6 6 3 3 1014.8 1014.7 -
24/06:00am 19.5 - - - - NW 4 6 2 3 1014.5 1014.4 -
24/05:30am 19.5 - - - - WSW 6 7 3 4 1014.1 1014.0 -
24/05:00am 19.5 - - - - WSW 7 7 4 4 1013.7 1013.6 -
24/04:30am 19.9 - - - - WSW 6 7 3 4 1013.5 1013.4 -
24/04:00am 20.1 - - - - WNW 11 13 6 7 1013.1 1013.0 -
24/03:30am 20.2 - - - - NW 9 9 5 5 1013.1 1013.0 -
24/03:00am 20.3 - - - - NW 11 13 6 7 1013.0 1012.9 -
24/02:30am 20.4 - - - - WNW 13 15 7 8 1013.0 1012.9 -
24/02:00am 20.4 - - - - NNW 15 17 8 9 1012.9 1012.8 -
24/01:30am 20.5 - - - - NNW 17 19 9 10 1012.9 1012.8 -
24/01:00am 20.4 - - - - NW 13 15 7 8 1013.2 1013.1 -
24/12:30am 20.6 - - - - NNW 19 20 10 11 1013.3 1013.2 -
24/12:00am 20.6 - - - - NNW 17 19 9 10 1013.2 1013.1 -
 
Date/Time
EST
Temp
°C
App
Temp
°C
Dew
Point
°C
Rel
Hum
%
Delta-T
°C
Wind Press
QNH
hPa
Press
MSL
hPa
Rain since
9am
mm
Dir  Spd
km/h
Gust
km/h
Spd
kts
Gust
kts
23/11:30pm 20.7 - - - - NNW 20 20 11 11 1013.4 1013.3 -
23/11:00pm 20.8 - - - - NNW 19 20 10 11 1013.5 1013.4 -
23/10:30pm 20.9 - - - - NNW 20 24 11 13 1013.4 1013.3 -
23/10:00pm 21.0 - - - - NNW 19 20 10 11 1013.6 1013.5 -
23/09:30pm 21.1 - - - - NNW 20 24 11 13 1013.5 1013.4 -
23/09:00pm 21.0 - - - - NNW 20 20 11 11 1013.3 1013.2 -
23/08:30pm 21.0 - - - - NNW 19 20 10 11 1013.0 1012.9 -
23/08:00pm 21.1 - - - - NNW 20 22 11 12 1012.6 1012.5 -
23/07:30pm 21.2 - - - - NNW 24 28 13 15 1012.4 1012.3 -
23/07:00pm 21.3 - - - - NNW 28 32 15 17 1011.9 1011.8 -
23/06:30pm 21.3 - - - - NNW 24 26 13 14 1011.8 1011.7 -
23/06:00pm 21.3 - - - - N 26 28 14 15 1011.5 1011.5 -
23/05:30pm 21.3 - - - - NNW 24 28 13 15 1011.5 1011.5 -
23/05:00pm 21.4 - - - - N 26 28 14 15 1011.4 1011.4 -
23/04:30pm 21.5 - - - - NNW 26 30 14 16 1011.4 1011.4 -
23/04:00pm 21.5 - - - - N 26 28 14 15 1011.4 1011.4 -
23/03:30pm 21.5 - - - - NNW 24 28 13 15 1011.4 1011.4 -
23/03:00pm 21.6 - - - - NNW 20 24 11 13 1011.9 1011.8 -
23/02:30pm 21.2 - - - - NNW 24 28 13 15 1011.8 1011.7 -
23/02:00pm 21.0 - - - - NNW 22 26 12 14 1012.1 1012.0 -
23/01:30pm 20.6 - - - - NNW 22 24 12 13 1012.3 1012.2 -
23/01:00pm 20.5 - - - - NNW 20 24 11 13 1012.6 1012.5 -
23/12:30pm 20.3 - - - - NNW 17 20 9 11 1013.2 1013.1 -
23/12:00pm 20.1 - - - - NNW 15 17 8 9 1013.8 1013.7 -
23/11:30am 19.7 - - - - NNW 17 19 9 10 1014.1 1014.0 -
23/11:00am 20.0 - - - - NW 17 19 9 10 1014.5 1014.4 -
23/10:30am 19.9 - - - - NW 17 19 9 10 1014.9 1014.8 -
23/10:00am 20.1 - - - - NW 15 17 8 9 1015.2 1015.1 -
23/09:30am 20.5 - - - - NW 13 15 7 8 1015.5 1015.4 -
23/09:00am 20.1 - - - - NW 11 13 6 7 1015.6 1015.5 -
23/08:30am 19.8 - - - - NW 4 6 2 3 1015.5 1015.4 -
23/08:00am 19.5 - - - - WNW 6 6 3 3 1015.3 1015.2 -
23/07:30am 19.4 - - - - NW 7 9 4 5 1015.1 1015.0 -
23/07:00am 19.1 - - - - NW 7 9 4 5 1014.8 1014.7 -
23/06:30am 19.0 - - - - WNW 7 9 4 5 1014.6 1014.5 -
23/06:00am 19.0 - - - - W 9 11 5 6 1014.4 1014.3 -
23/05:30am 18.9 - - - - W 7 9 4 5 1013.9 1013.8 -
23/05:00am 19.1 - - - - WNW 9 11 5 6 1013.7 1013.6 -
23/04:30am 19.3 - - - - WNW 11 13 6 7 1013.5 1013.4 -
23/04:00am 19.8 - - - - NNW 15 17 8 9 1013.1 1013.0 -
23/03:30am 19.8 - - - - NW 13 15 7 8 1013.3 1013.2 -
23/03:00am 19.9 - - - - NW 15 17 8 9 1013.5 1013.4 -
23/02:30am 19.9 - - - - NW 13 15 7 8 1013.5 1013.4 -
23/02:00am 20.0 - - - - NW 15 17 8 9 1013.7 1013.6 -
23/01:30am 20.0 - - - - NW 15 17 8 9 1013.8 1013.7 -
23/01:00am 20.1 - - - - NW 17 17 9 9 1014.0 1013.9 -
23/12:30am 20.3 - - - - NW 19 20 10 11 1014.3 1014.2 -
23/12:00am 20.4 - - - - NW 17 20 9 11 1014.4 1014.3 -

Other Formats:

Comma delimited format used in spreadsheet applications
http://www.bom.gov.au/fwo/IDQ60801/IDQ60801.94378.axf

JavaScript Object Notation format (JSON) in row-major order
http://www.bom.gov.au/fwo/IDQ60801/IDQ60801.94378.json